Time;durP1;ratioP1;P1;durP2;ratioP2;P2;SDS_P1;SDS_P2;PMS_P1;PMS_P2;Temp;Humidity;BMP_temperature;BMP_pressure;BME280_temperature;BME280_humidity;BME280_pressure;Samples;Min_cycle;Max_cycle;Signal;HPM_P1;HPM_P2
2024/01/30 00:02:24;;;;;;;7.93;4.63;;;;;5.70;102155.00;;;;5083295;28;20247;-64
2024/01/30 00:05:11;;;;;;;6.03;3.73;;;;;5.70;102158.00;;;;5078602;28;20219;-66
2024/01/30 00:07:57;;;;;;;7.57;4.40;;;;;5.80;102150.00;;;;5079408;28;20261;-65
2024/01/30 00:10:45;;;;;;;6.20;3.87;;;;;5.80;102153.00;;;;5079933;28;20312;-64
2024/01/30 00:13:31;;;;;;;6.53;4.00;;;;;5.70;102150.00;;;;5083066;28;20232;-65
2024/01/30 00:16:21;;;;;;;7.20;4.60;;;;;5.70;102145.00;;;;5087044;28;20348;-64
2024/01/30 00:19:08;;;;;;;6.73;4.20;;;;;5.70;102150.00;;;;5081460;28;20594;-66
2024/01/30 00:21:54;;;;;;;6.87;3.93;;;;;5.70;102142.00;;;;5079770;28;20755;-64
2024/01/30 00:24:40;;;;;;;5.20;4.00;;;;;5.70;102152.00;;;;5086538;28;20227;-64
2024/01/30 00:27:28;;;;;;;7.10;4.13;;;;;5.70;102152.00;;;;5085471;28;20231;-64
2024/01/30 00:30:15;;;;;;;6.03;3.70;;;;;5.70;102147.00;;;;5086186;28;20227;-65
2024/01/30 00:33:02;;;;;;;6.20;4.07;;;;;5.70;102146.00;;;;5081196;28;20348;-67
2024/01/30 00:35:48;;;;;;;9.37;4.47;;;;;5.70;102148.00;;;;5086434;28;20298;-66
2024/01/30 00:38:34;;;;;;;5.20;3.97;;;;;5.70;102142.00;;;;5085642;28;20227;-65
2024/01/30 00:41:21;;;;;;;6.20;4.63;;;;;5.70;102141.00;;;;5083713;28;20338;-65
2024/01/30 00:44:08;;;;;;;8.17;4.97;;;;;5.70;102136.00;;;;5080809;28;20222;-65
2024/01/30 00:46:55;;;;;;;9.60;4.30;;;;;5.60;102147.00;;;;5081705;28;20219;-65
2024/01/30 00:49:41;;;;;;;10.27;4.90;;;;;5.60;102137.00;;;;5085503;28;20370;-66
2024/01/30 00:52:28;;;;;;;4.83;4.20;;;;;5.60;102141.00;;;;5082384;28;20362;-64
2024/01/30 00:55:14;;;;;;;10.03;4.40;;;;;5.60;102129.00;;;;5079440;28;20228;-68
2024/01/30 00:58:01;;;;;;;7.40;4.10;;;;;5.60;102142.00;;;;5078916;28;20721;-67
2024/01/30 01:00:48;;;;;;;5.10;3.87;;;;;5.50;102128.00;;;;5085049;28;20232;-65
2024/01/30 01:03:35;;;;;;;6.00;4.33;;;;;5.50;102137.00;;;;5082251;28;20257;-66
2024/01/30 01:06:21;;;;;;;6.10;4.13;;;;;5.50;102133.00;;;;5084736;28;20227;-65
2024/01/30 01:09:07;;;;;;;5.67;4.03;;;;;5.50;102131.00;;;;5086437;28;20725;-67
2024/01/30 01:11:54;;;;;;;4.67;3.33;;;;;5.50;102135.00;;;;5086323;28;20240;-64
2024/01/30 01:14:40;;;;;;;8.60;4.23;;;;;5.50;102126.00;;;;5085486;28;20227;-66
2024/01/30 01:17:27;;;;;;;8.10;3.73;;;;;5.50;102130.00;;;;5083625;28;20305;-67
2024/01/30 01:20:14;;;;;;;6.87;3.67;;;;;5.50;102131.00;;;;5077723;28;20236;-66
2024/01/30 01:23:00;;;;;;;6.33;4.43;;;;;5.50;102134.00;;;;5082193;28;20366;-66
2024/01/30 01:25:46;;;;;;;6.87;4.33;;;;;5.50;102130.00;;;;5084998;28;20223;-65
2024/01/30 01:28:32;;;;;;;4.67;3.60;;;;;5.50;102140.00;;;;5085010;28;21054;-66
2024/01/30 01:31:19;;;;;;;5.50;4.30;;;;;5.50;102125.00;;;;5084339;28;20785;-66
2024/01/30 01:34:07;;;;;;;7.00;3.77;;;;;5.50;102136.00;;;;5080124;28;20247;-67
2024/01/30 01:36:55;;;;;;;5.77;3.83;;;;;5.50;102129.00;;;;5083828;28;20224;-65
2024/01/30 01:39:41;;;;;;;5.63;3.93;;;;;5.60;102128.00;;;;5083275;28;20246;-66
2024/01/30 01:42:27;;;;;;;8.93;3.80;;;;;5.50;102131.00;;;;5084136;28;20243;-66
2024/01/30 01:45:13;;;;;;;6.53;4.10;;;;;5.50;102133.00;;;;5085009;28;20230;-67
2024/01/30 01:48:02;;;;;;;6.23;3.73;;;;;5.50;102118.00;;;;5084097;28;20271;-66
2024/01/30 01:50:49;;;;;;;5.30;3.90;;;;;5.50;102120.00;;;;5084450;28;20265;-66
2024/01/30 01:53:36;;;;;;;5.07;3.83;;;;;5.50;102132.00;;;;5084494;28;20992;-66
2024/01/30 01:56:23;;;;;;;7.27;4.53;;;;;5.50;102106.00;;;;5084898;28;20227;-67
2024/01/30 01:59:10;;;;;;;13.03;5.20;;;;;5.50;102112.00;;;;5082538;28;20238;-65
2024/01/30 02:01:58;;;;;;;6.57;4.50;;;;;5.50;102113.00;;;;5084998;28;20227;-66
2024/01/30 02:04:45;;;;;;;7.10;4.87;;;;;5.50;102113.00;;;;5076449;28;20232;-67
2024/01/30 02:07:33;;;;;;;6.30;4.37;;;;;5.50;102109.00;;;;5079774;28;20836;-65
2024/01/30 02:10:19;;;;;;;5.73;3.77;;;;;5.50;102111.00;;;;5085208;28;20377;-67
2024/01/30 02:13:06;;;;;;;7.07;4.53;;;;;5.50;102102.00;;;;5079145;28;20889;-67
2024/01/30 02:15:52;;;;;;;6.77;4.30;;;;;5.60;102100.00;;;;5084081;28;20755;-65
2024/01/30 02:18:43;;;;;;;6.20;3.63;;;;;5.60;102100.00;;;;5083739;28;20227;-65
2024/01/30 02:21:30;;;;;;;6.83;4.80;;;;;5.60;102087.00;;;;5084218;28;20700;-65
2024/01/30 02:24:17;;;;;;;7.33;3.87;;;;;5.50;102104.00;;;;5079022;28;20233;-67
2024/01/30 02:27:03;;;;;;;7.80;4.60;;;;;5.60;102086.00;;;;5080740;28;20221;-65
2024/01/30 02:29:50;;;;;;;8.13;4.67;;;;;5.50;102083.00;;;;5083595;28;20240;-63
2024/01/30 02:32:36;;;;;;;6.37;3.83;;;;;5.50;102095.00;;;;5081572;28;20235;-67
2024/01/30 02:35:22;;;;;;;7.97;4.37;;;;;5.50;102087.00;;;;5084613;28;20442;-65
2024/01/30 02:38:10;;;;;;;6.50;4.33;;;;;5.50;102077.00;;;;5076313;28;20231;-68
2024/01/30 02:40:56;;;;;;;6.37;4.27;;;;;5.50;102077.00;;;;5084017;28;20235;-67
2024/01/30 02:43:42;;;;;;;10.67;4.57;;;;;5.40;102080.00;;;;5082476;28;20716;-63
2024/01/30 02:46:28;;;;;;;10.83;5.47;;;;;5.50;102074.00;;;;5080498;28;20353;-66
2024/01/30 02:49:15;;;;;;;5.93;4.43;;;;;5.40;102067.00;;;;5079651;28;20800;-66
2024/01/30 02:52:01;;;;;;;8.00;4.80;;;;;5.40;102074.00;;;;5076087;28;20782;-68
2024/01/30 02:54:48;;;;;;;7.20;4.30;;;;;5.40;102061.00;;;;5081923;28;20307;-67
2024/01/30 02:57:35;;;;;;;8.80;5.17;;;;;5.40;102067.00;;;;5080009;28;20610;-65
2024/01/30 03:00:21;;;;;;;6.73;4.77;;;;;5.40;102059.00;;;;5077966;28;20313;-68
2024/01/30 03:03:07;;;;;;;5.37;4.67;;;;;5.30;102054.00;;;;5075611;28;20298;-66
2024/01/30 03:05:54;;;;;;;8.43;5.23;;;;;5.30;102057.00;;;;5081829;28;20701;-65
2024/01/30 03:08:40;;;;;;;5.87;4.30;;;;;5.30;102057.00;;;;5081340;28;20235;-66
2024/01/30 03:11:28;;;;;;;4.63;3.57;;;;;5.30;102053.00;;;;5083660;28;20227;-66
2024/01/30 03:14:14;;;;;;;6.33;4.60;;;;;5.20;102054.00;;;;5077988;28;20240;-67
2024/01/30 03:17:00;;;;;;;6.27;4.10;;;;;5.20;102053.00;;;;5077077;28;20357;-67
2024/01/30 03:19:46;;;;;;;8.30;4.77;;;;;5.20;102050.00;;;;5082017;28;20231;-67
2024/01/30 03:22:33;;;;;;;7.63;4.77;;;;;5.10;102042.00;;;;5080798;28;20235;-66
2024/01/30 03:25:19;;;;;;;7.37;4.37;;;;;5.10;102045.00;;;;5081463;28;20685;-68
2024/01/30 03:28:07;;;;;;;9.30;5.07;;;;;5.10;102047.00;;;;5083274;28;20612;-64
2024/01/30 03:30:53;;;;;;;5.83;4.00;;;;;5.10;102050.00;;;;5086573;28;20289;-66
2024/01/30 03:33:39;;;;;;;9.20;5.80;;;;;5.10;102051.00;;;;5087446;28;20231;-68
2024/01/30 03:36:26;;;;;;;7.33;4.57;;;;;5.10;102038.00;;;;5085069;28;20235;-65
2024/01/30 03:39:12;;;;;;;6.77;4.27;;;;;5.10;102043.00;;;;5085845;28;20657;-65
2024/01/30 03:41:58;;;;;;;5.33;3.90;;;;;5.10;102043.00;;;;5086511;28;20227;-65
2024/01/30 03:44:45;;;;;;;7.10;4.50;;;;;5.20;102032.00;;;;5083465;28;20349;-65
2024/01/30 03:47:31;;;;;;;8.13;4.70;;;;;5.10;102035.00;;;;5082978;28;20239;-65
2024/01/30 03:50:18;;;;;;;9.13;4.10;;;;;5.20;102023.00;;;;5081437;28;20241;-66
2024/01/30 03:53:05;;;;;;;6.33;3.53;;;;;5.20;102025.00;;;;5084317;28;20313;-67
2024/01/30 03:55:51;;;;;;;8.93;4.70;;;;;5.20;102023.00;;;;5087786;28;20362;-65
2024/01/30 03:58:37;;;;;;;6.93;4.63;;;;;5.20;102022.00;;;;5076284;28;20228;-65
2024/01/30 04:01:25;;;;;;;5.60;3.63;;;;;5.20;102021.00;;;;5082922;28;20277;-66
2024/01/30 04:04:11;;;;;;;9.57;4.33;;;;;5.30;102019.00;;;;5085295;28;20389;-68
2024/01/30 04:06:58;;;;;;;5.93;4.10;;;;;5.30;102030.00;;;;5085489;28;20231;-66
2024/01/30 04:09:44;;;;;;;5.53;3.77;;;;;5.40;102016.00;;;;5086028;28;20729;-66
2024/01/30 04:12:30;;;;;;;6.50;3.90;;;;;5.30;102015.00;;;;5086675;28;20238;-66
2024/01/30 04:15:17;;;;;;;11.63;4.93;;;;;5.30;102010.00;;;;5080693;28;20231;-65
2024/01/30 04:18:05;;;;;;;6.67;4.63;;;;;5.40;102007.00;;;;5085973;28;20226;-65
2024/01/30 04:20:51;;;;;;;7.70;4.17;;;;;5.40;102010.00;;;;5085664;28;20230;-66
2024/01/30 04:23:38;;;;;;;8.30;4.30;;;;;5.40;102005.00;;;;5086189;28;20281;-66
2024/01/30 04:26:24;;;;;;;5.57;4.00;;;;;5.40;101997.00;;;;5083017;28;20563;-64
2024/01/30 04:29:10;;;;;;;7.40;5.00;;;;;5.50;102002.00;;;;5080155;28;20289;-66
2024/01/30 04:31:57;;;;;;;6.87;3.93;;;;;5.50;101994.00;;;;5084948;28;20231;-69
2024/01/30 04:34:44;;;;;;;7.07;5.00;;;;;5.60;101993.00;;;;5068798;28;20616;-66
2024/01/30 04:37:31;;;;;;;5.97;4.47;;;;;5.50;102000.00;;;;5085955;28;20219;-65
2024/01/30 04:40:17;;;;;;;5.20;3.90;;;;;5.60;102001.00;;;;5084254;28;20350;-65
2024/01/30 04:43:04;;;;;;;7.83;4.20;;;;;5.60;102006.00;;;;5086169;28;20232;-66
2024/01/30 04:45:50;;;;;;;6.53;4.30;;;;;5.60;101994.00;;;;5082761;28;20234;-65
2024/01/30 04:48:37;;;;;;;6.97;4.40;;;;;5.60;101998.00;;;;5086786;28;20239;-64
2024/01/30 04:51:25;;;;;;;7.27;4.07;;;;;5.60;101997.00;;;;5086057;28;20223;-64
2024/01/30 04:54:11;;;;;;;8.30;4.20;;;;;5.50;101997.00;;;;5076290;28;20302;-67
2024/01/30 04:56:58;;;;;;;7.93;4.50;;;;;5.60;102000.00;;;;5085215;28;20235;-65
2024/01/30 04:59:44;;;;;;;6.93;3.97;;;;;5.50;102000.00;;;;5082942;28;20235;-65
2024/01/30 05:02:31;;;;;;;4.13;3.27;;;;;5.50;101997.00;;;;5086414;28;20239;-64
2024/01/30 05:05:17;;;;;;;6.00;4.10;;;;;5.50;101987.00;;;;5083876;28;20357;-64
2024/01/30 05:08:05;;;;;;;5.07;3.80;;;;;5.50;101985.00;;;;5085603;28;20227;-66
2024/01/30 05:10:52;;;;;;;9.87;5.90;;;;;5.60;101995.00;;;;5084619;28;20717;-65
2024/01/30 05:13:38;;;;;;;6.57;4.60;;;;;5.60;102007.00;;;;5082516;28;20717;-65
2024/01/30 05:16:24;;;;;;;7.60;4.83;;;;;5.70;101999.00;;;;5079282;28;20235;-65
2024/01/30 05:19:10;;;;;;;5.77;3.73;;;;;5.70;101996.00;;;;5077711;28;20231;-64
2024/01/30 05:21:57;;;;;;;9.63;3.83;;;;;5.60;101996.00;;;;5083563;28;20230;-66
2024/01/30 05:24:45;;;;;;;6.57;4.27;;;;;5.60;101989.00;;;;5085302;28;20365;-66
2024/01/30 05:27:31;;;;;;;8.20;4.40;;;;;5.70;101987.00;;;;5080439;28;20285;-64
2024/01/30 05:30:17;;;;;;;8.33;4.33;;;;;5.60;101991.00;;;;5078194;28;20720;-67
2024/01/30 05:33:04;;;;;;;6.03;4.07;;;;;5.70;101985.00;;;;5083158;28;20755;-64
2024/01/30 05:35:54;;;;;;;5.60;3.83;;;;;5.70;101988.00;;;;5078888;28;20366;-63
2024/01/30 05:38:40;;;;;;;6.37;3.90;;;;;5.70;102000.00;;;;5085421;28;20242;-66
2024/01/30 05:41:28;;;;;;;5.17;4.00;;;;;5.70;101993.00;;;;5077568;28;20603;-65
2024/01/30 05:44:14;;;;;;;5.40;3.43;;;;;5.70;101996.00;;;;5082011;28;20232;-65
2024/01/30 05:47:01;;;;;;;6.83;4.60;;;;;5.80;101998.00;;;;5083511;28;20280;-65
2024/01/30 05:49:47;;;;;;;6.33;3.67;;;;;5.70;101991.00;;;;5085013;28;20232;-64
2024/01/30 05:52:33;;;;;;;7.53;4.60;;;;;5.70;101989.00;;;;5081248;28;20231;-65
2024/01/30 05:55:20;;;;;;;4.87;3.60;;;;;5.70;101988.00;;;;5085140;28;20227;-66
2024/01/30 05:58:08;;;;;;;7.90;4.30;;;;;5.70;101976.00;;;;5083097;28;20242;-63
2024/01/30 06:00:54;;;;;;;6.03;4.00;;;;;5.70;101980.00;;;;5082945;28;20239;-65
2024/01/30 06:03:40;;;;;;;8.33;5.20;;;;;5.70;101981.00;;;;5083308;28;20223;-65
2024/01/30 06:06:27;;;;;;;6.03;4.27;;;;;5.80;101982.00;;;;5072308;28;20235;-65
2024/01/30 06:09:13;;;;;;;8.13;4.03;;;;;5.80;101990.00;;;;5084686;28;20235;-64
2024/01/30 06:12:00;;;;;;;7.63;4.03;;;;;5.80;101986.00;;;;5074649;28;20227;-65
2024/01/30 06:14:47;;;;;;;4.33;3.90;;;;;5.80;101996.00;;;;5084830;28;21000;-67
2024/01/30 06:17:34;;;;;;;8.70;4.10;;;;;5.80;101992.00;;;;5077130;28;20690;-65
2024/01/30 06:20:20;;;;;;;8.50;4.47;;;;;5.80;101999.00;;;;5084543;28;20711;-65
2024/01/30 06:23:06;;;;;;;8.23;4.20;;;;;5.80;101996.00;;;;5083395;28;20223;-62
2024/01/30 06:25:53;;;;;;;4.87;3.53;;;;;5.80;101996.00;;;;5080706;28;21060;-67
2024/01/30 06:28:39;;;;;;;5.20;4.00;;;;;5.90;102000.00;;;;5079822;28;20871;-68
2024/01/30 06:31:27;;;;;;;7.07;4.13;;;;;5.90;101981.00;;;;5077462;28;20601;-68
2024/01/30 06:34:13;;;;;;;10.33;4.87;;;;;5.90;101988.00;;;;5083697;28;20244;-66
2024/01/30 06:37:00;;;;;;;5.87;3.50;;;;;6.00;101991.00;;;;5082770;28;20227;-65
2024/01/30 06:39:46;;;;;;;8.27;4.30;;;;;6.00;101994.00;;;;5081313;28;20753;-65
2024/01/30 06:42:33;;;;;;;8.97;4.10;;;;;6.10;101993.00;;;;5083696;28;20230;-63
2024/01/30 06:45:19;;;;;;;4.70;3.17;;;;;6.10;101996.00;;;;5082625;28;20290;-65
2024/01/30 06:48:08;;;;;;;6.73;4.47;;;;;6.10;101985.00;;;;5079005;28;20231;-63
2024/01/30 06:50:55;;;;;;;6.53;4.20;;;;;6.20;101991.00;;;;5081530;28;20780;-65
2024/01/30 06:53:41;;;;;;;5.77;4.27;;;;;6.20;101996.00;;;;5079106;28;20233;-65
2024/01/30 06:56:27;;;;;;;6.33;4.33;;;;;6.20;101996.00;;;;5080303;28;20231;-65
2024/01/30 06:59:13;;;;;;;7.60;4.50;;;;;6.30;101987.00;;;;5077507;28;20244;-65
2024/01/30 07:01:59;;;;;;;9.00;4.63;;;;;6.30;101996.00;;;;5084896;28;20235;-65
2024/01/30 07:04:48;;;;;;;8.20;4.37;;;;;6.30;101998.00;;;;5083027;28;20738;-66
2024/01/30 07:07:34;;;;;;;11.90;4.47;;;;;6.30;101990.00;;;;5079993;28;20227;-65
2024/01/30 07:10:20;;;;;;;7.53;4.73;;;;;6.40;101998.00;;;;5087737;28;20739;-65
2024/01/30 07:13:08;;;;;;;8.67;4.63;;;;;6.40;101997.00;;;;5086200;28;20232;-66
2024/01/30 07:15:55;;;;;;;9.00;4.17;;;;;6.40;101993.00;;;;5083563;28;20231;-65
2024/01/30 07:18:41;;;;;;;7.20;4.03;;;;;6.40;101998.00;;;;5087139;28;20656;-64
2024/01/30 07:21:28;;;;;;;8.67;5.00;;;;;6.50;101997.00;;;;5082795;28;20259;-64
2024/01/30 07:24:15;;;;;;;10.53;4.37;;;;;6.50;101998.00;;;;5084702;28;20244;-65
2024/01/30 07:27:01;;;;;;;5.43;3.67;;;;;6.60;101999.00;;;;5079468;28;20738;-65
2024/01/30 07:29:48;;;;;;;6.37;3.80;;;;;6.50;102006.00;;;;5087972;28;20247;-64
2024/01/30 07:32:36;;;;;;;6.47;4.20;;;;;6.60;102009.00;;;;5082492;28;20240;-65
2024/01/30 07:35:23;;;;;;;9.23;4.83;;;;;6.60;102007.00;;;;5083105;28;20227;-65
2024/01/30 07:38:10;;;;;;;6.63;4.27;;;;;6.80;102023.00;;;;5087785;28;20228;-66
2024/01/30 07:40:57;;;;;;;5.63;4.30;;;;;6.80;102018.00;;;;5083733;28;20745;-68
2024/01/30 07:43:44;;;;;;;8.83;4.30;;;;;6.80;102008.00;;;;5084499;28;20600;-65
2024/01/30 07:46:30;;;;;;;9.23;4.10;;;;;6.90;102019.00;;;;5087453;28;20310;-63
2024/01/30 07:49:17;;;;;;;5.97;4.10;;;;;6.90;102014.00;;;;5086023;28;20236;-66
2024/01/30 07:52:07;;;;;;;5.53;3.97;;;;;6.90;102016.00;;;;5086676;28;20232;-65
2024/01/30 07:54:55;;;;;;;6.63;4.30;;;;;7.00;102013.00;;;;5083012;28;20287;-67
2024/01/30 07:57:42;;;;;;;5.57;3.93;;;;;7.10;102006.00;;;;5080998;28;20241;-67
2024/01/30 08:00:29;;;;;;;4.60;3.87;;;;;7.10;102023.00;;;;5081547;28;20233;-64
2024/01/30 08:03:16;;;;;;;5.13;3.93;;;;;7.20;102021.00;;;;5086079;28;20241;-67
2024/01/30 08:06:02;;;;;;;6.87;4.03;;;;;7.20;102016.00;;;;5084171;28;20768;-65
2024/01/30 08:08:50;;;;;;;7.03;4.20;;;;;7.20;102033.00;;;;5083846;28;20222;-66
2024/01/30 08:11:37;;;;;;;7.13;4.80;;;;;7.40;102037.00;;;;5086723;28;20932;-66
2024/01/30 08:14:23;;;;;;;9.83;3.73;;;;;7.50;102036.00;;;;5086842;28;20245;-65
2024/01/30 08:17:10;;;;;;;13.17;5.00;;;;;7.60;102024.00;;;;5084268;28;20225;-69
2024/01/30 08:19:56;;;;;;;8.03;4.63;;;;;7.80;102035.00;;;;5085675;28;20317;-66
2024/01/30 08:22:43;;;;;;;6.70;4.90;;;;;7.80;102030.00;;;;5081014;28;20225;-66
2024/01/30 08:25:30;;;;;;;12.87;4.97;;;;;8.00;102038.00;;;;5073631;28;20679;-66
2024/01/30 08:28:18;;;;;;;8.30;4.80;;;;;8.10;102034.00;;;;5086387;28;20234;-67
2024/01/30 08:31:07;;;;;;;9.67;5.33;;;;;8.20;102037.00;;;;5085965;28;20223;-66
2024/01/30 08:33:53;;;;;;;9.60;4.70;;;;;8.20;102048.00;;;;5083706;28;20229;-66
2024/01/30 08:36:39;;;;;;;12.47;5.30;;;;;8.30;102047.00;;;;5078495;28;20268;-64
2024/01/30 08:39:26;;;;;;;8.60;4.80;;;;;8.40;102046.00;;;;5085542;28;20228;-65
2024/01/30 08:42:12;;;;;;;8.97;5.17;;;;;8.40;102044.00;;;;5080408;28;20229;-65
2024/01/30 08:45:00;;;;;;;8.37;5.13;;;;;8.50;102041.00;;;;5080262;28;20224;-66
2024/01/30 08:47:46;;;;;;;9.30;5.37;;;;;8.60;102043.00;;;;5079210;28;20621;-66
2024/01/30 08:50:32;;;;;;;10.33;5.40;;;;;8.70;102041.00;;;;5084614;28;20252;-65
2024/01/30 08:53:19;;;;;;;8.47;5.30;;;;;8.70;102039.00;;;;5077279;28;20778;-66
2024/01/30 08:56:07;;;;;;;7.40;5.17;;;;;8.80;102037.00;;;;5081905;28;20227;-64
2024/01/30 08:58:54;;;;;;;10.80;4.70;;;;;8.80;102045.00;;;;5085742;28;20230;-66
2024/01/30 09:01:41;;;;;;;7.43;4.43;;;;;8.80;102051.00;;;;5079360;28;20348;-64
2024/01/30 09:04:40;;;;;;;9.13;4.73;;;;;8.70;102051.00;;;;5086598;28;20228;-65
2024/01/30 09:07:27;;;;;;;7.03;5.23;;;;;8.70;102049.00;;;;5083700;28;20235;-66
2024/01/30 09:10:13;;;;;;;8.20;4.77;;;;;8.70;102049.00;;;;5085300;28;20732;-63
2024/01/30 09:13:02;;;;;;;8.27;4.83;;;;;8.80;102054.00;;;;5085707;28;20270;-66
2024/01/30 09:15:48;;;;;;;9.57;5.13;;;;;8.80;102048.00;;;;5078967;28;20230;-65
2024/01/30 09:18:36;;;;;;;6.93;4.30;;;;;8.80;102057.00;;;;5079352;28;20231;-67
2024/01/30 09:21:22;;;;;;;9.57;4.67;;;;;8.90;102062.00;;;;5081927;28;20227;-67
2024/01/30 09:24:09;;;;;;;6.90;4.17;;;;;8.80;102065.00;;;;5076810;28;20226;-65
2024/01/30 09:26:55;;;;;;;6.97;4.60;;;;;8.80;102072.00;;;;5080657;28;20239;-63
2024/01/30 09:29:42;;;;;;;7.77;4.80;;;;;8.80;102072.00;;;;5075559;28;20913;-64
2024/01/30 09:32:28;;;;;;;6.07;4.30;;;;;8.80;102080.00;;;;5083789;28;20247;-64
2024/01/30 09:35:16;;;;;;;14.47;5.23;;;;;8.80;102083.00;;;;5082724;28;20317;-62
2024/01/30 09:38:03;;;;;;;10.60;5.33;;;;;8.90;102082.00;;;;5084929;28;20881;-65
2024/01/30 09:40:54;;;;;;;18.43;5.53;;;;;8.90;102079.00;;;;5075460;28;20232;-65
2024/01/30 09:43:41;;;;;;;9.40;5.17;;;;;9.00;102088.00;;;;5080967;28;20224;-64
2024/01/30 09:46:28;;;;;;;11.10;5.70;;;;;9.10;102076.00;;;;5080949;28;20248;-66
2024/01/30 09:49:16;;;;;;;9.10;5.60;;;;;9.20;102074.00;;;;5084481;28;20844;-66
2024/01/30 09:52:08;;;;;;;13.27;5.60;;;;;9.30;102070.00;;;;5073347;28;20343;-62
2024/01/30 09:54:55;;;;;;;10.03;5.07;;;;;9.40;102071.00;;;;5078997;28;20735;-65
2024/01/30 09:57:42;;;;;;;8.40;5.77;;;;;9.50;102072.00;;;;5085037;28;20617;-65
2024/01/30 10:00:29;;;;;;;10.27;5.63;;;;;9.60;102066.00;;;;5083935;28;20325;-65
2024/01/30 10:03:15;;;;;;;11.50;5.37;;;;;9.70;102057.00;;;;5084499;28;20310;-65
2024/01/30 10:06:02;;;;;;;7.33;4.53;;;;;9.90;102061.00;;;;5076015;28;20239;-65
2024/01/30 10:08:50;;;;;;;7.57;4.77;;;;;10.10;102047.00;;;;5081086;28;20313;-68
2024/01/30 10:11:37;;;;;;;10.53;4.47;;;;;10.30;102051.00;;;;5084126;28;20243;-65
2024/01/30 10:14:23;;;;;;;7.50;5.00;;;;;10.40;102061.00;;;;5074733;28;20260;-65
2024/01/30 10:17:10;;;;;;;7.67;4.80;;;;;10.50;102062.00;;;;5084691;28;20222;-65
2024/01/30 10:20:10;;;;;;;6.43;4.30;;;;;10.70;102056.00;;;;5082317;28;20239;-68
2024/01/30 10:22:58;;;;;;;7.73;4.60;;;;;10.80;102060.00;;;;5082131;28;20224;-65
2024/01/30 10:25:46;;;;;;;7.67;4.70;;;;;10.90;102066.00;;;;5073048;28;20593;-66
2024/01/30 10:28:32;;;;;;;5.80;3.87;;;;;11.10;102066.00;;;;5083585;28;20316;-65
2024/01/30 10:31:19;;;;;;;7.33;4.47;;;;;11.20;102065.00;;;;5066543;28;21383;-65
2024/01/30 10:34:05;;;;;;;9.97;4.07;;;;;11.30;102069.00;;;;5083764;28;20720;-67
2024/01/30 10:37:12;;;;;;;7.37;5.10;;;;;11.40;102077.00;;;;5083920;28;20231;-67
2024/01/30 10:40:04;;;;;;;8.13;4.97;;;;;11.50;102067.00;;;;5082185;28;20235;-66
2024/01/30 10:42:56;;;;;;;7.00;4.13;;;;;11.60;102064.00;;;;5083363;28;20224;-65
2024/01/30 10:45:47;;;;;;;9.23;4.40;;;;;11.80;102068.00;;;;5083806;28;20224;-66
2024/01/30 10:48:39;;;;;;;8.90;4.77;;;;;11.90;102065.00;;;;5082562;28;20239;-66
2024/01/30 10:51:27;;;;;;;8.83;4.97;;;;;12.00;102068.00;;;;5081487;28;20435;-67
2024/01/30 10:54:14;;;;;;;7.10;3.97;;;;;12.00;102071.00;;;;5083652;28;20299;-65
2024/01/30 10:57:02;;;;;;;9.37;4.60;;;;;12.00;102069.00;;;;5083735;28;20223;-65
2024/01/30 10:59:52;;;;;;;5.87;4.00;;;;;12.00;102078.00;;;;5076343;28;20273;-65
2024/01/30 11:02:40;;;;;;;5.83;3.93;;;;;11.90;102073.00;;;;5083305;28;20301;-64
2024/01/30 11:05:28;;;;;;;9.77;4.43;;;;;11.80;102085.00;;;;5083590;28;20789;-64
2024/01/30 11:08:24;;;;;;;7.13;4.17;;;;;11.80;102070.00;;;;5078312;28;20299;-66
2024/01/30 11:11:11;;;;;;;7.73;4.63;;;;;11.80;102074.00;;;;5073776;28;20249;-65
2024/01/30 11:14:02;;;;;;;10.00;4.60;;;;;11.80;102069.00;;;;5077319;28;20230;-69
2024/01/30 11:16:50;;;;;;;6.57;4.37;;;;;11.80;102067.00;;;;5072078;28;20221;-65
2024/01/30 11:19:36;;;;;;;9.07;5.10;;;;;11.90;102075.00;;;;5079953;28;20234;-65
2024/01/30 11:22:23;;;;;;;9.37;4.50;;;;;11.90;102077.00;;;;5075488;28;20319;-65
2024/01/30 11:25:12;;;;;;;8.70;4.63;;;;;11.80;102083.00;;;;5083738;28;20596;-66
2024/01/30 11:27:58;;;;;;;9.63;4.13;;;;;11.80;102075.00;;;;5079570;28;20236;-66
2024/01/30 11:30:47;;;;;;;11.57;5.00;;;;;11.80;102074.00;;;;5082882;28;20285;-65
2024/01/30 11:33:35;;;;;;;6.87;4.60;;;;;11.70;102084.00;;;;5082136;28;20240;-64
2024/01/30 11:36:27;;;;;;;8.47;4.90;;;;;11.80;102079.00;;;;5074434;28;20240;-65
2024/01/30 11:39:16;;;;;;;8.97;4.77;;;;;11.80;102088.00;;;;5079706;28;20285;-65
2024/01/30 11:42:05;;;;;;;6.80;4.53;;;;;11.80;102083.00;;;;5079862;28;20219;-66
2024/01/30 11:44:52;;;;;;;9.00;5.20;;;;;11.80;102087.00;;;;5072249;28;20330;-65
2024/01/30 11:47:38;;;;;;;10.00;4.50;;;;;11.80;102088.00;;;;5083213;28;20231;-64
2024/01/30 11:50:31;;;;;;;8.07;4.57;;;;;11.70;102090.00;;;;5083792;28;20335;-65
2024/01/30 11:53:17;;;;;;;7.40;4.77;;;;;11.80;102090.00;;;;5085010;28;20227;-66
2024/01/30 11:56:07;;;;;;;8.17;4.83;;;;;11.80;102081.00;;;;5085645;28;20221;-64
2024/01/30 11:58:54;;;;;;;7.47;4.70;;;;;11.80;102094.00;;;;5084485;28;20741;-66
2024/01/30 12:01:40;;;;;;;12.80;4.87;;;;;11.90;102089.00;;;;5087330;28;20673;-64
2024/01/30 12:04:29;;;;;;;7.20;4.73;;;;;11.80;102081.00;;;;5082036;28;20293;-65
2024/01/30 12:07:17;;;;;;;9.27;5.00;;;;;11.90;102084.00;;;;5083726;28;20311;-65
2024/01/30 12:10:05;;;;;;;7.27;4.90;;;;;12.00;102093.00;;;;5081531;28;20331;-66
2024/01/30 12:12:52;;;;;;;10.27;4.87;;;;;12.00;102087.00;;;;5080385;28;20235;-67
2024/01/30 12:15:38;;;;;;;9.83;5.00;;;;;12.00;102076.00;;;;5085703;28;20271;-64
2024/01/30 12:18:25;;;;;;;12.43;5.17;;;;;11.90;102075.00;;;;5085043;28;20606;-65
2024/01/30 12:21:11;;;;;;;11.70;4.87;;;;;11.90;102085.00;;;;5081612;28;20224;-63
2024/01/30 12:24:00;;;;;;;9.17;5.20;;;;;11.90;102086.00;;;;5085526;28;20281;-63
2024/01/30 12:26:46;;;;;;;9.57;5.63;;;;;11.80;102090.00;;;;5086288;28;20290;-66
2024/01/30 12:29:33;;;;;;;7.27;4.60;;;;;11.80;102098.00;;;;5086609;28;20301;-65
2024/01/30 12:32:24;;;;;;;7.77;5.07;;;;;11.80;102098.00;;;;5087120;28;20686;-68
2024/01/30 12:35:11;;;;;;;9.03;4.87;;;;;11.80;102097.00;;;;5081005;28;20700;-64
2024/01/30 12:37:58;;;;;;;7.50;4.77;;;;;11.80;102101.00;;;;5085970;28;20733;-63
2024/01/30 12:40:46;;;;;;;8.23;4.67;;;;;11.80;102103.00;;;;5085508;28;20237;-64
2024/01/30 12:43:33;;;;;;;11.77;5.33;;;;;11.80;102102.00;;;;5085622;28;20421;-65
2024/01/30 12:46:28;;;;;;;7.77;4.50;;;;;11.80;102104.00;;;;5084068;28;20227;-65
2024/01/30 12:49:15;;;;;;;6.80;4.43;;;;;11.90;102099.00;;;;5080977;28;20985;-66
2024/01/30 12:52:02;;;;;;;8.97;5.03;;;;;11.90;102099.00;;;;5082149;28;21052;-66
2024/01/30 12:54:48;;;;;;;9.30;5.00;;;;;11.90;102085.00;;;;5084696;28;20234;-64
2024/01/30 12:57:36;;;;;;;15.60;5.07;;;;;12.00;102091.00;;;;5085541;28;20298;-64
2024/01/30 13:00:22;;;;;;;8.43;4.53;;;;;11.90;102087.00;;;;5084127;28;20302;-64
2024/01/30 13:03:08;;;;;;;9.50;5.07;;;;;12.00;102087.00;;;;5079750;28;20654;-65
2024/01/30 13:05:56;;;;;;;9.73;5.10;;;;;12.10;102090.00;;;;5085794;28;20228;-66
2024/01/30 13:08:43;;;;;;;9.60;4.97;;;;;12.20;102100.00;;;;5085859;28;20365;-67
2024/01/30 13:11:29;;;;;;;7.57;4.67;;;;;12.20;102095.00;;;;5081079;28;20357;-65
2024/01/30 13:14:17;;;;;;;11.23;5.40;;;;;12.20;102088.00;;;;5080613;28;20981;-66
2024/01/30 13:17:04;;;;;;;7.03;4.50;;;;;12.10;102096.00;;;;5084976;28;20281;-63
2024/01/30 13:19:51;;;;;;;8.57;4.63;;;;;12.10;102092.00;;;;5079393;28;20240;-66
2024/01/30 13:22:38;;;;;;;10.27;4.60;;;;;12.10;102096.00;;;;5081103;28;20252;-65
2024/01/30 13:25:24;;;;;;;8.93;4.83;;;;;12.00;102087.00;;;;5080682;28;20252;-67
2024/01/30 13:28:11;;;;;;;8.23;4.80;;;;;12.10;102103.00;;;;5078541;28;20364;-65
2024/01/30 13:30:59;;;;;;;12.10;5.20;;;;;12.00;102106.00;;;;5082967;28;20603;-66
2024/01/30 13:33:45;;;;;;;6.30;4.57;;;;;12.00;102110.00;;;;5084751;28;20243;-66
2024/01/30 13:36:32;;;;;;;8.30;5.10;;;;;11.90;102100.00;;;;5085713;28;20890;-66
2024/01/30 13:39:18;;;;;;;6.50;4.37;;;;;12.00;102104.00;;;;5079383;28;20327;-68
2024/01/30 13:42:08;;;;;;;14.70;5.30;;;;;12.00;102106.00;;;;5082460;28;20228;-65
2024/01/30 13:44:54;;;;;;;9.43;5.30;;;;;12.00;102100.00;;;;5085003;28;20325;-67
2024/01/30 13:47:42;;;;;;;12.90;5.83;;;;;11.90;102095.00;;;;5079712;28;20245;-66
2024/01/30 13:50:29;;;;;;;9.33;5.00;;;;;12.00;102100.00;;;;5085662;28;20236;-63
2024/01/30 13:53:15;;;;;;;8.43;4.57;;;;;12.00;102112.00;;;;5079017;28;20306;-66